Time;durP1;ratioP1;P1;durP2;ratioP2;P2;SDS_P1;SDS_P2;PMS_P1;PMS_P2;Temp;Humidity;BMP_temperature;BMP_pressure;BME280_temperature;BME280_humidity;BME280_pressure;Samples;Min_cycle;Max_cycle;Signal;HPM_P1;HPM_P2
2022/08/13 00:00:51;;;;;;;;;;;23.00;44.60;;;;;;4926517;29;19931;-88
2022/08/13 00:03:19;;;;;;;;;;;22.90;44.80;;;;;;4909444;29;19979;-88
2022/08/13 00:06:10;;;;;;;;;;;22.90;45.40;;;;;;4918773;29;19986;-88
2022/08/13 00:08:54;;;;;;;;;;;22.80;45.50;;;;;;4925248;29;19934;-89
2022/08/13 00:14:29;;;;;;;;;;;22.80;45.80;;;;;;4935918;29;20580;-85
2022/08/13 00:17:05;;;;;;;;;;;22.70;46.00;;;;;;4922411;29;19933;-87
2022/08/13 00:19:36;;;;;;;;;;;22.70;46.30;;;;;;4923096;29;20352;-89
2022/08/13 00:22:05;;;;;;;;;;;22.70;47.00;;;;;;4923785;29;19931;-89
2022/08/13 00:24:53;;;;;;;;;;;22.60;46.50;;;;;;4913411;29;19966;-88
2022/08/13 00:27:22;;;;;;;;;;;22.60;46.80;;;;;;4895004;29;19987;-88
2022/08/13 00:29:50;;;;;;;;;;;22.60;46.70;;;;;;4899696;29;20447;-88
2022/08/13 00:32:27;;;;;;;;;;;22.60;46.80;;;;;;4901527;29;20302;-85
2022/08/13 00:34:54;;;;;;;;;;;22.50;47.00;;;;;;4906838;29;20853;-86
2022/08/13 00:37:25;;;;;;;;;;;22.50;47.40;;;;;;4905632;29;19935;-88
2022/08/13 00:39:55;;;;;;;;;;;22.40;47.60;;;;;;4903521;29;19931;-88
2022/08/13 00:42:42;;;;;;;;;;;22.30;48.40;;;;;;4899923;29;20037;-89
2022/08/13 00:45:18;;;;;;;;;;;22.20;48.80;;;;;;4903280;29;19942;-89
2022/08/13 00:50:35;;;;;;;;;;;22.20;48.80;;;;;;4927599;29;19927;-84
2022/08/13 00:53:04;;;;;;;;;;;22.20;49.00;;;;;;4901053;29;19974;-88
2022/08/13 00:55:31;;;;;;;;;;;22.20;49.10;;;;;;4902942;29;20022;-87
2022/08/13 00:57:58;;;;;;;;;;;22.20;49.50;;;;;;4902085;29;19999;-88
2022/08/13 01:00:27;;;;;;;;;;;22.20;49.20;;;;;;4896615;29;19938;-87
2022/08/13 01:02:54;;;;;;;;;;;22.20;49.20;;;;;;4916583;29;20402;-86
2022/08/13 01:05:24;;;;;;;;;;;22.20;49.10;;;;;;4917458;29;19938;-86
2022/08/13 01:07:56;;;;;;;;;;;22.20;48.90;;;;;;4921151;29;20415;-84
2022/08/13 01:10:24;;;;;;;;;;;22.20;49.00;;;;;;4902497;29;19928;-88
2022/08/13 01:12:54;;;;;;;;;;;22.20;49.40;;;;;;4909021;29;19927;-87
2022/08/13 01:15:23;;;;;;;;;;;22.20;49.70;;;;;;4922352;29;19965;-85
2022/08/13 01:18:02;;;;;;;;;;;22.20;49.60;;;;;;4900669;29;19934;-87
2022/08/13 01:20:32;;;;;;;;;;;22.20;49.90;;;;;;4915616;29;19931;-87
2022/08/13 01:23:01;;;;;;;;;;;22.20;49.90;;;;;;4921861;29;20299;-84
2022/08/13 01:25:30;;;;;;;;;;;22.10;49.70;;;;;;4921901;29;19982;-86
2022/08/13 01:28:18;;;;;;;;;;;22.10;50.80;;;;;;4920410;29;20112;-87
2022/08/13 01:30:46;;;;;;;;;;;22.10;50.00;;;;;;4914079;29;19969;-87
2022/08/13 01:33:17;;;;;;;;;;;22.10;49.80;;;;;;4921039;29;19934;-85
2022/08/13 01:35:45;;;;;;;;;;;22.20;50.00;;;;;;4918698;29;19933;-85
2022/08/13 01:38:19;;;;;;;;;;;22.20;49.70;;;;;;4929060;29;19927;-88
2022/08/13 01:40:48;;;;;;;;;;;22.20;49.50;;;;;;4922036;29;20280;-87
2022/08/13 01:43:20;;;;;;;;;;;22.20;49.10;;;;;;4922455;29;19965;-88
2022/08/13 01:45:51;;;;;;;;;;;22.10;48.30;;;;;;4938824;29;19927;-85
2022/08/13 01:51:33;;;;;;;;;;;22.10;48.70;;;;;;4934440;29;19934;-88
2022/08/13 01:54:09;;;;;;;;;;;22.10;49.30;;;;;;4911433;29;19955;-85
2022/08/13 01:56:59;;;;;;;;;;;22.10;49.60;;;;;;4918169;29;19926;-88
2022/08/13 01:59:28;;;;;;;;;;;22.10;49.70;;;;;;4921178;29;19927;-88
2022/08/13 02:02:15;;;;;;;;;;;22.00;50.00;;;;;;4920698;29;20022;-87
2022/08/13 02:05:02;;;;;;;;;;;22.00;49.60;;;;;;4917812;29;19927;-87
2022/08/13 02:07:29;;;;;;;;;;;21.90;48.60;;;;;;4918009;29;19961;-85
2022/08/13 02:10:19;;;;;;;;;;;21.90;49.80;;;;;;4925170;29;20305;-85
2022/08/13 02:12:48;;;;;;;;;;;22.00;49.50;;;;;;4921914;29;19927;-87
2022/08/13 02:15:15;;;;;;;;;;;22.00;49.70;;;;;;4922425;29;19955;-88
2022/08/13 02:17:42;;;;;;;;;;;22.00;50.30;;;;;;4921546;29;19945;-85
2022/08/13 02:20:31;;;;;;;;;;;22.00;50.10;;;;;;4932787;29;19982;-88
2022/08/13 02:23:06;;;;;;;;;;;22.00;50.10;;;;;;4920403;29;19927;-87
2022/08/13 02:25:34;;;;;;;;;;;22.00;50.20;;;;;;4920082;29;19950;-87
2022/08/13 02:28:01;;;;;;;;;;;22.00;50.20;;;;;;4921309;29;19974;-85
2022/08/13 02:30:29;;;;;;;;;;;22.00;50.10;;;;;;4922752;29;19997;-88
2022/08/13 02:33:00;;;;;;;;;;;22.00;51.30;;;;;;4947238;29;19934;-88
2022/08/13 02:35:28;;;;;;;;;;;22.00;50.70;;;;;;4926143;28;19931;-88
2022/08/13 02:38:15;;;;;;;;;;;22.00;51.30;;;;;;4924653;29;19927;-88
2022/08/13 02:43:46;;;;;;;;;;;22.00;51.40;;;;;;4948597;29;19930;-85
2022/08/13 02:46:25;;;;;;;;;;;22.00;51.30;;;;;;4937820;29;19926;-88
2022/08/13 02:48:53;;;;;;;;;;;22.00;51.40;;;;;;4920449;29;19941;-87
2022/08/13 02:51:23;;;;;;;;;;;22.00;52.20;;;;;;4938078;29;20488;-85
2022/08/13 02:54:11;;;;;;;;;;;21.90;52.20;;;;;;4935958;29;20371;-87
2022/08/13 02:56:38;;;;;;;;;;;21.90;52.30;;;;;;4935068;29;19933;-88
2022/08/13 02:59:10;;;;;;;;;;;21.90;52.60;;;;;;4922486;28;19935;-88
2022/08/13 03:01:58;;;;;;;;;;;21.80;52.70;;;;;;4913119;29;20014;-85
2022/08/13 03:04:25;;;;;;;;;;;21.80;53.10;;;;;;4923793;29;19927;-87
2022/08/13 03:06:59;;;;;;;;;;;21.80;53.20;;;;;;4919141;29;19935;-88
2022/08/13 03:09:27;;;;;;;;;;;21.70;53.20;;;;;;4917901;29;19935;-88
2022/08/13 03:11:59;;;;;;;;;;;21.70;53.20;;;;;;4921536;29;19927;-88
2022/08/13 03:14:31;;;;;;;;;;;21.60;53.20;;;;;;4927047;29;20332;-85
2022/08/13 03:16:58;;;;;;;;;;;21.60;53.30;;;;;;4928333;29;19930;-87
2022/08/13 03:19:27;;;;;;;;;;;21.60;53.40;;;;;;4918351;29;20419;-87
2022/08/13 03:21:54;;;;;;;;;;;21.60;53.20;;;;;;4924719;29;19927;-88
2022/08/13 03:24:21;;;;;;;;;;;21.60;53.10;;;;;;4912235;29;19927;-88
2022/08/13 03:26:58;;;;;;;;;;;21.50;53.00;;;;;;4918070;29;19949;-87
2022/08/13 03:29:25;;;;;;;;;;;21.60;53.00;;;;;;4912466;29;20360;-85
2022/08/13 03:32:15;;;;;;;;;;;21.60;53.10;;;;;;4916104;29;19954;-87
2022/08/13 03:34:42;;;;;;;;;;;21.60;52.90;;;;;;4917304;29;19971;-87
2022/08/13 03:37:12;;;;;;;;;;;21.50;52.50;;;;;;4905878;29;21617;-88
2022/08/13 03:39:40;;;;;;;;;;;21.60;52.30;;;;;;4915586;29;19982;-88
2022/08/13 03:42:08;;;;;;;;;;;21.60;52.20;;;;;;4922534;29;20400;-88
2022/08/13 03:44:39;;;;;;;;;;;21.60;52.00;;;;;;4925157;29;19932;-88
2022/08/13 03:47:13;;;;;;;;;;;21.60;51.90;;;;;;4920304;29;19931;-88
2022/08/13 03:50:02;;;;;;;;;;;21.70;52.10;;;;;;4933632;29;19933;-87
2022/08/13 03:52:30;;;;;;;;;;;21.60;52.00;;;;;;4913427;29;19934;-88
2022/08/13 03:55:04;;;;;;;;;;;21.70;52.10;;;;;;4932077;29;20025;-87
2022/08/13 03:57:33;;;;;;;;;;;21.60;52.10;;;;;;4918047;29;20340;-87
2022/08/13 04:00:22;;;;;;;;;;;21.60;51.90;;;;;;4924448;29;19936;-87
2022/08/13 04:02:52;;;;;;;;;;;21.70;52.00;;;;;;4918756;29;19977;-87
2022/08/13 04:05:19;;;;;;;;;;;21.60;52.10;;;;;;4925656;28;20382;-88
2022/08/13 04:08:06;;;;;;;;;;;21.60;52.00;;;;;;4922722;29;19936;-86
2022/08/13 04:10:43;;;;;;;;;;;21.60;51.90;;;;;;4922686;29;20352;-88
2022/08/13 04:13:20;;;;;;;;;;;21.60;52.20;;;;;;4906890;29;19927;-88
2022/08/13 04:16:07;;;;;;;;;;;21.60;52.00;;;;;;4927649;29;19962;-87
2022/08/13 04:18:36;;;;;;;;;;;21.60;52.10;;;;;;4922505;29;19978;-88
2022/08/13 04:21:04;;;;;;;;;;;21.60;52.30;;;;;;4919521;29;20446;-88
2022/08/13 04:23:33;;;;;;;;;;;21.60;52.70;;;;;;4926162;29;19935;-86
2022/08/13 04:26:03;;;;;;;;;;;21.60;53.30;;;;;;4924887;29;19927;-88
2022/08/13 04:28:30;;;;;;;;;;;21.60;53.90;;;;;;4923675;29;19974;-88
2022/08/13 04:31:00;;;;;;;;;;;21.60;53.90;;;;;;4924402;29;19927;-89
2022/08/13 04:33:27;;;;;;;;;;;21.60;53.90;;;;;;4912878;29;19931;-86
2022/08/13 04:36:14;;;;;;;;;;;21.50;54.00;;;;;;4934796;29;20005;-88
2022/08/13 04:38:44;;;;;;;;;;;21.60;54.40;;;;;;4916741;29;20340;-88
2022/08/13 04:41:11;;;;;;;;;;;21.50;54.70;;;;;;4920712;29;19927;-87
2022/08/13 04:43:41;;;;;;;;;;;21.50;54.80;;;;;;4937055;28;19926;-88
2022/08/13 04:46:08;;;;;;;;;;;21.50;55.60;;;;;;4919000;29;19927;-88
2022/08/13 04:48:35;;;;;;;;;;;21.40;55.20;;;;;;4917617;29;19927;-86
2022/08/13 04:51:05;;;;;;;;;;;21.40;55.10;;;;;;4951445;29;19926;-87
2022/08/13 04:53:42;;;;;;;;;;;21.40;54.80;;;;;;4922048;29;19931;-87
2022/08/13 04:56:16;;;;;;;;;;;21.40;54.70;;;;;;4923368;29;19927;-86
2022/08/13 04:58:45;;;;;;;;;;;21.40;54.60;;;;;;4921644;29;20394;-87
2022/08/13 05:01:12;;;;;;;;;;;21.40;55.80;;;;;;4921672;29;19927;-88
2022/08/13 05:03:58;;;;;;;;;;;21.30;56.80;;;;;;4933168;29;20014;-87
2022/08/13 05:06:46;;;;;;;;;;;21.20;58.10;;;;;;4931925;29;20380;-88
2022/08/13 05:09:18;;;;;;;;;;;21.10;59.10;;;;;;4913667;29;19937;-88
2022/08/13 05:11:46;;;;;;;;;;;21.10;59.60;;;;;;4918320;29;19927;-86
2022/08/13 05:14:35;;;;;;;;;;;21.00;59.60;;;;;;4924986;29;20014;-87
2022/08/13 05:17:08;;;;;;;;;;;21.00;59.60;;;;;;4939415;29;19930;-87
2022/08/13 05:19:40;;;;;;;;;;;21.10;59.60;;;;;;4921245;29;19926;-87
2022/08/13 05:22:11;;;;;;;;;;;21.00;59.50;;;;;;4917419;29;19931;-87
2022/08/13 05:24:52;;;;;;;;;;;21.10;59.90;;;;;;4909391;29;19950;-87
2022/08/13 05:27:39;;;;;;;;;;;21.10;59.90;;;;;;4921049;29;20009;-87
2022/08/13 05:30:12;;;;;;;;;;;21.10;59.70;;;;;;4937813;29;19927;-88
2022/08/13 05:32:59;;;;;;;;;;;21.10;59.90;;;;;;4921603;29;19927;-87
2022/08/13 05:35:32;;;;;;;;;;;21.00;60.10;;;;;;4920877;29;19990;-87
2022/08/13 05:38:23;;;;;;;;;;;21.00;60.80;;;;;;4925915;29;20446;-86
2022/08/13 05:41:02;;;;;;;;;;;21.00;61.30;;;;;;4935606;29;20012;-87
2022/08/13 05:43:32;;;;;;;;;;;20.90;61.10;;;;;;4933774;29;19927;-85
2022/08/13 05:46:02;;;;;;;;;;;20.90;61.20;;;;;;4932094;29;19927;-88
2022/08/13 05:48:43;;;;;;;;;;;20.90;61.20;;;;;;4927818;29;20350;-88
2022/08/13 05:51:12;;;;;;;;;;;20.90;61.10;;;;;;4911984;29;20409;-88
2022/08/13 05:53:40;;;;;;;;;;;20.90;61.10;;;;;;4916073;29;19937;-88
2022/08/13 05:56:32;;;;;;;;;;;20.90;60.90;;;;;;4915228;29;20418;-88
2022/08/13 05:59:01;;;;;;;;;;;21.00;60.90;;;;;;4923442;29;19926;-86
2022/08/13 06:04:22;;;;;;;;;;;21.10;60.20;;;;;;4941133;29;19926;-86
2022/08/13 06:07:13;;;;;;;;;;;21.20;59.20;;;;;;4923626;29;20398;-86
2022/08/13 06:09:40;;;;;;;;;;;21.30;58.70;;;;;;4938049;29;19934;-88
2022/08/13 06:12:08;;;;;;;;;;;21.40;57.40;;;;;;4920578;29;19931;-86
2022/08/13 06:14:56;;;;;;;;;;;21.40;57.00;;;;;;4918169;29;20014;-87
2022/08/13 06:17:31;;;;;;;;;;;21.40;56.20;;;;;;4918309;29;20352;-88
2022/08/13 06:20:03;;;;;;;;;;;21.50;56.00;;;;;;4915114;29;20395;-86
2022/08/13 06:22:34;;;;;;;;;;;21.60;55.80;;;;;;4918097;29;20310;-88
2022/08/13 06:25:10;;;;;;;;;;;21.60;55.70;;;;;;4917234;29;19933;-87
2022/08/13 06:27:38;;;;;;;;;;;21.60;55.60;;;;;;4918006;29;19933;-88
2022/08/13 06:30:25;;;;;;;;;;;21.70;55.40;;;;;;4927640;29;20320;-89
2022/08/13 06:33:02;;;;;;;;;;;21.70;54.00;;;;;;4913421;29;19998;-87
2022/08/13 06:35:54;;;;;;;;;;;21.70;54.40;;;;;;4931902;29;20410;-88
2022/08/13 06:38:28;;;;;;;;;;;21.70;53.60;;;;;;4919097;29;19930;-89
2022/08/13 06:41:02;;;;;;;;;;;21.70;53.70;;;;;;4919857;29;19927;-86
2022/08/13 06:43:36;;;;;;;;;;;21.70;53.10;;;;;;4936109;29;19926;-86
2022/08/13 06:46:24;;;;;;;;;;;21.70;53.20;;;;;;4927845;29;19965;-88
2022/08/13 06:48:57;;;;;;;;;;;21.80;53.20;;;;;;4944214;29;19933;-86
2022/08/13 06:51:28;;;;;;;;;;;21.90;53.30;;;;;;4925252;29;19927;-88
2022/08/13 06:53:55;;;;;;;;;;;21.90;53.70;;;;;;4923040;29;19934;-88
2022/08/13 06:56:45;;;;;;;;;;;22.00;53.40;;;;;;4928491;29;20298;-88
2022/08/13 06:59:33;;;;;;;;;;;22.10;53.50;;;;;;4909663;29;19936;-87
2022/08/13 07:02:22;;;;;;;;;;;22.20;53.30;;;;;;4923303;29;19927;-87
2022/08/13 07:04:57;;;;;;;;;;;22.20;53.10;;;;;;4939287;29;19962;-88
2022/08/13 07:07:25;;;;;;;;;;;22.30;53.00;;;;;;4918957;29;19927;-86
2022/08/13 07:09:52;;;;;;;;;;;22.40;52.90;;;;;;4920080;29;19978;-88
2022/08/13 07:12:20;;;;;;;;;;;22.40;52.40;;;;;;4937343;29;19981;-86
2022/08/13 07:14:50;;;;;;;;;;;22.50;51.80;;;;;;4912520;29;20354;-88
2022/08/13 07:17:28;;;;;;;;;;;22.50;51.80;;;;;;4907514;29;20392;-87
2022/08/13 07:19:57;;;;;;;;;;;22.70;51.70;;;;;;4925493;29;20299;-88
2022/08/13 07:22:34;;;;;;;;;;;22.80;51.10;;;;;;4919645;29;19969;-86
2022/08/13 07:25:25;;;;;;;;;;;22.90;51.00;;;;;;4902592;29;20361;-88
2022/08/13 07:28:15;;;;;;;;;;;23.00;50.60;;;;;;4898193;29;19959;-89
2022/08/13 07:31:05;;;;;;;;;;;23.10;49.80;;;;;;4908586;29;19931;-90
2022/08/13 07:33:44;;;;;;;;;;;23.20;50.00;;;;;;4898760;29;19931;-86
2022/08/13 07:36:28;;;;;;;;;;;23.30;49.40;;;;;;4893724;29;19927;-89
2022/08/13 07:38:56;;;;;;;;;;;23.40;49.10;;;;;;4903132;29;20379;-88
2022/08/13 07:41:39;;;;;;;;;;;23.40;48.20;;;;;;4911177;29;19931;-86
2022/08/13 07:44:28;;;;;;;;;;;23.40;48.60;;;;;;4920698;29;20018;-89
2022/08/13 07:46:57;;;;;;;;;;;23.50;48.70;;;;;;4903526;29;19927;-89
2022/08/13 07:49:25;;;;;;;;;;;23.60;49.00;;;;;;4903707;29;20041;-87
2022/08/13 07:52:11;;;;;;;;;;;23.70;48.90;;;;;;4910021;29;20343;-88
2022/08/13 07:54:43;;;;;;;;;;;23.70;48.60;;;;;;4907812;29;20379;-86
2022/08/13 07:57:17;;;;;;;;;;;23.60;48.70;;;;;;4894984;29;19933;-89
2022/08/13 08:00:04;;;;;;;;;;;23.70;48.80;;;;;;4918581;29;19934;-88
2022/08/13 08:02:43;;;;;;;;;;;23.70;48.80;;;;;;4918581;29;20046;-90
2022/08/13 08:05:13;;;;;;;;;;;23.80;48.70;;;;;;4907107;29;19935;-88
2022/08/13 08:07:40;;;;;;;;;;;24.00;48.80;;;;;;4897610;29;19927;-88
2022/08/13 08:10:28;;;;;;;;;;;24.10;48.30;;;;;;4902997;29;20334;-88
2022/08/13 08:12:59;;;;;;;;;;;24.20;48.20;;;;;;4894945;29;19927;-87
2022/08/13 08:15:27;;;;;;;;;;;24.40;47.80;;;;;;4904852;29;19952;-88
2022/08/13 08:18:14;;;;;;;;;;;24.60;47.40;;;;;;4908529;29;20006;-86
2022/08/13 08:21:04;;;;;;;;;;;24.70;47.30;;;;;;4908538;29;20010;-89
2022/08/13 08:23:54;;;;;;;;;;;24.80;45.50;;;;;;4904162;29;19927;-85
2022/08/13 08:26:26;;;;;;;;;;;24.90;45.90;;;;;;4923368;29;19934;-87
2022/08/13 08:28:56;;;;;;;;;;;25.00;45.70;;;;;;4911237;29;19954;-88
2022/08/13 08:31:25;;;;;;;;;;;25.00;44.70;;;;;;4926476;29;20369;-88
2022/08/13 08:34:12;;;;;;;;;;;25.10;44.10;;;;;;4915176;29;19996;-88
2022/08/13 08:36:41;;;;;;;;;;;25.20;43.90;;;;;;4916266;29;20013;-86
2022/08/13 08:44:57;;;;;;;;;;;25.40;42.20;;;;;;4921270;29;19934;-88
2022/08/13 08:47:29;;;;;;;;;;;25.50;42.60;;;;;;4905115;29;19927;-85
2022/08/13 08:50:15;;;;;;;;;;;25.50;42.90;;;;;;4921970;29;19966;-89
2022/08/13 08:55:58;;;;;;;;;;;25.70;42.20;;;;;;4928587;29;19931;-86
2022/08/13 08:58:27;;;;;;;;;;;25.70;41.90;;;;;;4912146;29;19931;-87
2022/08/13 09:01:07;;;;;;;;;;;25.80;42.10;;;;;;4893226;29;19934;-85
2022/08/13 09:03:48;;;;;;;;;;;25.80;41.50;;;;;;4905622;29;20010;-87
2022/08/13 09:06:25;;;;;;;;;;;25.90;41.90;;;;;;4901075;29;20005;-87
2022/08/13 09:09:13;;;;;;;;;;;25.90;41.30;;;;;;4914913;29;20034;-88
2022/08/13 09:11:44;;;;;;;;;;;26.10;40.00;;;;;;4907414;29;19927;-86
2022/08/13 09:14:20;;;;;;;;;;;26.20;40.00;;;;;;4911745;29;20022;-88
2022/08/13 09:16:49;;;;;;;;;;;26.40;40.40;;;;;;4907169;29;20307;-86
2022/08/13 09:19:18;;;;;;;;;;;26.50;40.20;;;;;;4905546;29;19943;-89
2022/08/13 09:22:05;;;;;;;;;;;26.50;40.00;;;;;;4908919;29;19974;-86
2022/08/13 09:24:37;;;;;;;;;;;26.60;40.30;;;;;;4902191;29;20014;-87
2022/08/13 09:27:04;;;;;;;;;;;26.70;39.90;;;;;;4899452;29;19962;-88
2022/08/13 09:29:31;;;;;;;;;;;26.80;39.00;;;;;;4902408;29;19927;-89
2022/08/13 09:32:05;;;;;;;;;;;26.80;39.60;;;;;;4899288;29;20276;-88
2022/08/13 09:34:59;;;;;;;;;;;27.00;38.80;;;;;;4883213;29;19932;-88
2022/08/13 09:37:27;;;;;;;;;;;27.20;38.30;;;;;;4858975;29;19993;-89
2022/08/13 09:40:16;;;;;;;;;;;27.30;38.30;;;;;;4888435;29;19962;-86
2022/08/13 09:43:07;;;;;;;;;;;27.30;38.40;;;;;;4883627;29;20046;-89
2022/08/13 09:45:39;;;;;;;;;;;27.30;38.10;;;;;;4891671;29;20396;-88
2022/08/13 09:48:13;;;;;;;;;;;27.50;38.40;;;;;;4875125;29;19927;-88
2022/08/13 09:51:03;;;;;;;;;;;27.60;38.10;;;;;;4864631;29;20338;-89
2022/08/13 09:54:09;;;;;;;;;;;27.60;37.50;;;;;;4859214;29;19935;-87
2022/08/13 09:56:38;;;;;;;;;;;27.80;37.10;;;;;;4836573;29;19935;-90
2022/08/13 09:59:06;;;;;;;;;;;27.80;37.00;;;;;;4830060;29;20340;-90
2022/08/13 10:01:35;;;;;;;;;;;28.00;37.30;;;;;;4831552;29;19928;-89
2022/08/13 10:04:22;;;;;;;;;;;28.20;37.40;;;;;;4839036;29;20369;-85
2022/08/13 10:06:50;;;;;;;;;;;28.30;36.60;;;;;;4876325;29;20032;-88
2022/08/13 10:09:26;;;;;;;;;;;28.20;35.00;;;;;;4865373;29;19983;-86
2022/08/13 10:11:59;;;;;;;;;;;28.10;36.20;;;;;;4866519;29;19961;-88
2022/08/13 10:14:46;;;;;;;;;;;28.20;36.00;;;;;;4878837;29;19986;-89
2022/08/13 10:17:23;;;;;;;;;;;28.30;35.40;;;;;;4864371;29;19935;-87
2022/08/13 10:20:08;;;;;;;;;;;28.30;36.20;;;;;;4879139;29;20415;-90
2022/08/13 10:22:35;;;;;;;;;;;28.40;35.60;;;;;;4873446;29;19952;-86
2022/08/13 10:25:02;;;;;;;;;;;28.30;35.40;;;;;;4904295;29;19927;-85
2022/08/13 10:27:34;;;;;;;;;;;28.40;35.90;;;;;;4914637;29;20348;-89
2022/08/13 10:30:14;;;;;;;;;;;28.50;36.10;;;;;;4918182;29;19986;-89
2022/08/13 10:33:01;;;;;;;;;;;28.70;36.20;;;;;;4901623;29;20022;-87
2022/08/13 10:35:29;;;;;;;;;;;28.80;35.10;;;;;;4913176;29;20447;-86
2022/08/13 10:37:59;;;;;;;;;;;28.80;34.40;;;;;;4917064;29;19927;-88
2022/08/13 10:40:32;;;;;;;;;;;28.90;34.70;;;;;;4920227;29;20332;-85
2022/08/13 10:43:05;;;;;;;;;;;28.90;32.80;;;;;;4909508;29;19936;-88
2022/08/13 10:45:46;;;;;;;;;;;28.80;34.30;;;;;;4918943;29;19934;-87
2022/08/13 10:48:13;;;;;;;;;;;28.90;34.90;;;;;;4913180;29;19927;-85
2022/08/13 10:50:41;;;;;;;;;;;29.00;32.50;;;;;;4913429;29;19935;-89
2022/08/13 10:53:55;;;;;;;;;;;29.00;33.60;;;;;;4916385;29;19995;-89
2022/08/13 10:56:10;;;;;;;;;;;29.20;33.80;;;;;;4924839;29;19933;-86
2022/08/13 10:58:41;;;;;;;;;;;29.50;33.40;;;;;;4914073;29;19997;-86
2022/08/13 11:01:15;;;;;;;;;;;29.70;32.90;;;;;;4925126;29;19926;-86
2022/08/13 11:03:46;;;;;;;;;;;29.60;31.50;;;;;;4919331;29;19926;-87
2022/08/13 11:06:15;;;;;;;;;;;29.70;32.80;;;;;;4920262;29;20385;-88
2022/08/13 11:08:42;;;;;;;;;;;29.80;31.50;;;;;;4914348;29;20360;-88
2022/08/13 11:11:10;;;;;;;;;;;29.70;31.60;;;;;;4917897;29;19978;-90
2022/08/13 11:13:57;;;;;;;;;;;29.80;32.30;;;;;;4930413;29;20443;-86
2022/08/13 11:19:14;;;;;;;;;;;29.90;32.90;;;;;;4931729;29;19978;-89
2022/08/13 11:21:43;;;;;;;;;;;30.00;32.10;;;;;;4922358;29;19927;-86
2022/08/13 11:24:30;;;;;;;;;;;30.20;31.60;;;;;;4907340;29;19956;-89
2022/08/13 11:27:03;;;;;;;;;;;30.40;31.60;;;;;;4896683;29;19931;-88
2022/08/13 11:29:35;;;;;;;;;;;30.70;31.70;;;;;;4898761;29;19934;-86
2022/08/13 11:32:04;;;;;;;;;;;30.90;31.50;;;;;;4897615;29;19966;-88
2022/08/13 11:34:31;;;;;;;;;;;30.90;30.80;;;;;;4918461;29;20006;-88
2022/08/13 11:36:57;;;;;;;;;;;31.00;32.00;;;;;;4897478;29;19928;-85
2022/08/13 11:39:27;;;;;;;;;;;30.90;30.50;;;;;;4919323;29;19926;-89
2022/08/13 11:42:14;;;;;;;;;;;30.70;30.60;;;;;;4913146;29;19949;-87
2022/08/13 11:44:43;;;;;;;;;;;30.70;31.00;;;;;;4900921;29;19927;-88
2022/08/13 11:47:14;;;;;;;;;;;30.60;31.20;;;;;;4913064;29;20304;-88
2022/08/13 11:49:51;;;;;;;;;;;30.70;31.10;;;;;;4895525;29;20297;-88
2022/08/13 11:52:18;;;;;;;;;;;30.70;31.10;;;;;;4893779;29;19927;-86
2022/08/13 11:54:54;;;;;;;;;;;30.80;31.00;;;;;;4913880;29;19970;-88
2022/08/13 11:57:22;;;;;;;;;;;30.90;31.20;;;;;;4900964;29;19933;-89
2022/08/13 11:59:49;;;;;;;;;;;31.10;31.60;;;;;;4908596;29;20041;-86
2022/08/13 12:02:24;;;;;;;;;;;31.00;30.80;;;;;;4905510;29;19927;-87
2022/08/13 12:04:58;;;;;;;;;;;31.10;30.80;;;;;;4910789;29;19967;-86
2022/08/13 12:07:26;;;;;;;;;;;31.10;30.60;;;;;;4913109;29;19931;-89
2022/08/13 12:09:55;;;;;;;;;;;30.90;30.50;;;;;;4904096;29;20458;-89
2022/08/13 12:12:24;;;;;;;;;;;30.80;31.40;;;;;;4909961;29;19950;-88
2022/08/13 12:15:06;;;;;;;;;;;31.00;32.10;;;;;;4910442;29;20376;-89
2022/08/13 12:17:33;;;;;;;;;;;31.20;31.90;;;;;;4897377;29;20023;-87
2022/08/13 12:20:20;;;;;;;;;;;31.20;30.90;;;;;;4901264;29;20307;-89
2022/08/13 12:22:51;;;;;;;;;;;31.30;30.70;;;;;;4927913;29;19954;-86
2022/08/13 12:25:22;;;;;;;;;;;31.10;30.10;;;;;;4934679;29;20351;-88
2022/08/13 12:28:11;;;;;;;;;;;30.90;30.80;;;;;;4929230;29;19950;-89
2022/08/13 12:30:49;;;;;;;;;;;31.10;31.70;;;;;;4931258;29;19927;-86
2022/08/13 12:33:17;;;;;;;;;;;31.30;32.00;;;;;;4931610;29;19927;-86
2022/08/13 12:35:48;;;;;;;;;;;31.40;31.60;;;;;;4932845;29;19934;-85
2022/08/13 12:38:23;;;;;;;;;;;31.50;31.50;;;;;;4927245;29;20459;-89
2022/08/13 12:40:57;;;;;;;;;;;31.60;30.90;;;;;;4917843;29;20068;-89
2022/08/13 12:43:25;;;;;;;;;;;31.50;30.40;;;;;;4935143;29;19931;-87
2022/08/13 12:46:14;;;;;;;;;;;31.70;31.30;;;;;;4912069;29;20459;-86
2022/08/13 12:49:00;;;;;;;;;;;31.90;31.70;;;;;;4909863;29;19935;-87
2022/08/13 12:51:27;;;;;;;;;;;32.10;30.90;;;;;;4926214;29;19930;-87
2022/08/13 12:54:14;;;;;;;;;;;32.30;30.10;;;;;;4909513;29;19934;-86
2022/08/13 12:57:01;;;;;;;;;;;32.30;30.00;;;;;;4918710;29;20009;-88
2022/08/13 12:59:31;;;;;;;;;;;32.20;29.30;;;;;;4929362;29;20307;-87
2022/08/13 13:02:04;;;;;;;;;;;32.20;30.40;;;;;;4935625;29;19927;-89
2022/08/13 13:04:33;;;;;;;;;;;32.30;30.00;;;;;;4916930;29;19931;-88
2022/08/13 13:07:00;;;;;;;;;;;32.40;30.00;;;;;;4925173;29;20035;-86
2022/08/13 13:09:33;;;;;;;;;;;32.30;29.80;;;;;;4922029;29;20021;-89
2022/08/13 13:12:15;;;;;;;;;;;32.40;30.10;;;;;;4912112;29;20379;-89
2022/08/13 13:14:42;;;;;;;;;;;32.50;30.10;;;;;;4923447;29;19994;-87
2022/08/13 13:17:09;;;;;;;;;;;32.60;30.80;;;;;;4931826;29;19934;-86
2022/08/13 13:19:57;;;;;;;;;;;32.70;30.00;;;;;;4925861;29;19938;-88
2022/08/13 13:22:34;;;;;;;;;;;32.60;30.50;;;;;;4918286;29;19938;-85
2022/08/13 13:25:05;;;;;;;;;;;32.60;30.40;;;;;;4908630;29;19935;-87
2022/08/13 13:27:35;;;;;;;;;;;32.40;29.90;;;;;;4905851;29;20463;-87
2022/08/13 13:30:13;;;;;;;;;;;32.40;30.30;;;;;;4900250;29;19928;-89
2022/08/13 13:32:46;;;;;;;;;;;32.30;29.80;;;;;;4897449;29;19934;-89
2022/08/13 13:35:15;;;;;;;;;;;32.40;29.80;;;;;;4894457;29;20026;-88
2022/08/13 13:38:02;;;;;;;;;;;32.10;29.80;;;;;;4901029;29;20474;-88
2022/08/13 13:40:34;;;;;;;;;;;32.10;30.20;;;;;;4906291;29;19934;-87
2022/08/13 13:43:09;;;;;;;;;;;32.30;30.20;;;;;;4901285;29;20397;-87
2022/08/13 13:45:55;;;;;;;;;;;32.70;30.40;;;;;;4893454;29;19935;-88
2022/08/13 13:48:36;;;;;;;;;;;32.90;30.00;;;;;;4906000;29;19931;-87
2022/08/13 13:51:04;;;;;;;;;;;33.00;29.50;;;;;;4914295;29;19927;-89
2022/08/13 13:53:35;;;;;;;;;;;32.80;29.00;;;;;;4893323;29;19927;-89
2022/08/13 13:56:22;;;;;;;;;;;32.90;29.80;;;;;;4909104;29;19928;-89
2022/08/13 13:58:54;;;;;;;;;;;33.10;30.20;;;;;;4898218;29;19951;-88
2022/08/13 14:01:25;;;;;;;;;;;33.20;29.00;;;;;;4901933;29;19949;-85
2022/08/13 14:04:13;;;;;;;;;;;33.10;28.80;;;;;;4896717;29;20411;-89
2022/08/13 14:06:40;;;;;;;;;;;32.80;29.20;;;;;;4918123;29;19983;-84
2022/08/13 14:09:08;;;;;;;;;;;32.70;29.50;;;;;;4893690;29;19927;-88
2022/08/13 14:11:36;;;;;;;;;;;32.70;29.50;;;;;;4899907;29;19939;-87
2022/08/13 14:14:15;;;;;;;;;;;32.80;29.40;;;;;;4902347;29;20533;-88
2022/08/13 14:16:46;;;;;;;;;;;32.90;29.70;;;;;;4896233;29;20443;-86
2022/08/13 14:19:15;;;;;;;;;;;33.00;29.70;;;;;;4900450;29;19934;-89
2022/08/13 14:22:06;;;;;;;;;;;33.30;29.40;;;;;;4902629;29;20365;-87
2022/08/13 14:24:33;;;;;;;;;;;33.50;29.00;;;;;;4918330;29;20498;-89
2022/08/13 14:27:01;;;;;;;;;;;33.70;28.30;;;;;;4935232;29;20410;-87
2022/08/13 14:29:33;;;;;;;;;;;33.70;28.30;;;;;;4918799;29;19934;-89
2022/08/13 14:32:00;;;;;;;;;;;33.60;28.20;;;;;;4919745;29;19933;-89
2022/08/13 14:34:29;;;;;;;;;;;33.40;28.10;;;;;;4918993;29;19974;-88
2022/08/13 14:36:57;;;;;;;;;;;33.40;27.90;;;;;;4921129;29;19933;-88
2022/08/13 14:39:43;;;;;;;;;;;33.40;28.40;;;;;;4922671;29;20010;-87
2022/08/13 14:42:26;;;;;;;;;;;33.60;28.30;;;;;;4916250;29;19927;-87
2022/08/13 14:48:25;;;;;;;;;;;33.60;27.90;;;;;;4936421;29;19931;-88
2022/08/13 14:50:57;;;;;;;;;;;33.60;28.10;;;;;;4920091;29;20418;-86
2022/08/13 14:53:24;;;;;;;;;;;33.70;28.50;;;;;;4916476;29;19934;-88
2022/08/13 14:55:56;;;;;;;;;;;33.80;27.80;;;;;;4918245;29;20392;-86
2022/08/13 14:58:24;;;;;;;;;;;33.90;28.00;;;;;;4911398;29;19931;-87
2022/08/13 15:01:01;;;;;;;;;;;33.50;27.10;;;;;;4920636;29;20017;-86
2022/08/13 15:03:31;;;;;;;;;;;33.00;27.60;;;;;;4918230;29;19926;-89
2022/08/13 15:06:00;;;;;;;;;;;32.70;28.50;;;;;;4916588;29;19927;-89
2022/08/13 15:08:28;;;;;;;;;;;32.90;28.70;;;;;;4924886;29;20390;-89
2022/08/13 15:11:00;;;;;;;;;;;33.00;28.70;;;;;;4912244;29;20388;-86
2022/08/13 15:13:34;;;;;;;;;;;32.90;28.20;;;;;;4935111;29;19935;-88
2022/08/13 15:16:23;;;;;;;;;;;32.90;28.70;;;;;;4911389;29;19931;-88
2022/08/13 15:18:52;;;;;;;;;;;33.00;28.90;;;;;;4916813;29;19979;-89
2022/08/13 15:21:20;;;;;;;;;;;33.10;28.40;;;;;;4915726;29;19982;-89
2022/08/13 15:24:07;;;;;;;;;;;33.40;28.50;;;;;;4903982;29;19927;-88
2022/08/13 15:26:39;;;;;;;;;;;33.20;27.90;;;;;;4901268;29;19934;-88
2022/08/13 15:29:11;;;;;;;;;;;33.20;28.20;;;;;;4906622;29;19927;-89